Time;durP1;ratioP1;P1;durP2;ratioP2;P2;SDS_P1;SDS_P2;PMS_P1;PMS_P2;Temp;Humidity;BMP_temperature;BMP_pressure;BME280_temperature;BME280_humidity;BME280_pressure;Samples;Min_cycle;Max_cycle;Signal;HPM_P1;HPM_P2
2021/08/13 00:00:11;;;;;;;18.50;14.13;;;;;;;17.32;56.64;99135.97;5102710;28;20114;-69
2021/08/13 00:02:36;;;;;;;21.38;14.23;;;;;;;17.32;56.31;99137.94;5101841;28;20559;-69
2021/08/13 00:05:02;;;;;;;19.80;14.77;;;;;;;17.28;56.42;99136.94;5102475;28;20038;-70
2021/08/13 00:07:27;;;;;;;24.60;14.88;;;;;;;17.23;56.46;99132.34;5101695;28;21240;-70
2021/08/13 00:09:53;;;;;;;31.45;21.73;;;;;;;17.18;56.85;99130.56;5102439;28;20879;-69
2021/08/13 00:12:18;;;;;;;26.25;18.80;;;;;;;17.18;56.92;99136.13;5100795;28;20012;-70
2021/08/13 00:14:44;;;;;;;21.65;15.38;;;;;;;17.19;57.34;99129.44;5102365;28;20500;-70
2021/08/13 00:17:09;;;;;;;20.88;14.93;;;;;;;17.16;57.06;99124.53;5103100;28;20024;-70
2021/08/13 00:19:34;;;;;;;21.25;14.52;;;;;;;17.18;57.25;99132.50;5101504;28;20398;-69
2021/08/13 00:22:00;;;;;;;22.30;15.07;;;;;;;17.17;57.26;99134.47;5101023;28;21141;-70
2021/08/13 00:24:25;;;;;;;19.25;14.77;;;;;;;17.18;57.28;99132.50;5099759;28;20031;-69
2021/08/13 00:26:51;;;;;;;20.55;14.38;;;;;;;17.16;57.40;99143.94;5101200;28;20151;-70
2021/08/13 00:29:16;;;;;;;21.20;14.55;;;;;;;17.14;57.58;99139.84;5101794;28;20115;-70
2021/08/13 00:31:41;;;;;;;21.63;15.02;;;;;;;17.12;57.15;99140.19;5100763;28;20023;-70
2021/08/13 00:34:07;;;;;;;20.48;15.25;;;;;;;17.13;57.63;99133.50;5102283;28;20068;-70
2021/08/13 00:36:32;;;;;;;21.77;15.07;;;;;;;17.14;57.53;99140.66;5102515;28;20118;-70
2021/08/13 00:39:02;;;;;;;24.92;16.75;;;;;;;17.14;57.51;99143.44;5082760;28;20066;-70
2021/08/13 00:41:27;;;;;;;28.90;17.48;;;;;;;17.13;57.36;99141.81;5101245;28;20085;-70
2021/08/13 00:43:53;;;;;;;22.60;17.05;;;;;;;17.13;57.72;99138.19;5105695;28;20377;-69
2021/08/13 00:46:18;;;;;;;23.55;16.23;;;;;;;17.12;57.57;99142.94;5106356;28;20031;-70
2021/08/13 00:48:43;;;;;;;23.70;15.05;;;;;;;17.10;57.73;99134.13;5105113;28;20028;-69
2021/08/13 00:51:10;;;;;;;22.95;15.13;;;;;;;17.09;58.13;99138.03;5105687;28;20022;-70
2021/08/13 00:53:36;;;;;;;20.65;15.15;;;;;;;17.05;57.88;99142.59;5086582;28;20034;-70
2021/08/13 00:56:01;;;;;;;22.38;15.25;;;;;;;16.96;58.28;99129.53;5105653;28;20762;-69
2021/08/13 00:58:27;;;;;;;19.83;14.48;;;;;;;16.92;58.25;99127.72;5106369;28;20019;-70
2021/08/13 01:00:53;;;;;;;21.63;14.75;;;;;;;16.91;58.11;99132.41;5104995;28;20111;-69
2021/08/13 01:03:18;;;;;;;22.90;15.95;;;;;;;16.92;58.42;99136.03;5104317;28;20051;-70
2021/08/13 01:05:44;;;;;;;22.25;15.13;;;;;;;16.91;58.37;99131.63;5105260;28;20438;-69
2021/08/13 01:08:09;;;;;;;23.35;15.68;;;;;;;16.85;58.74;99133.75;5105836;28;20123;-70
2021/08/13 01:10:48;;;;;;;23.38;15.40;;;;;;;16.83;58.46;99130.47;5104844;28;20038;-69
2021/08/13 01:13:23;;;;;;;23.88;16.02;;;;;;;16.78;58.73;99134.19;5084724;28;20023;-69
2021/08/13 01:15:56;;;;;;;22.65;16.02;;;;;;;16.80;58.89;99136.66;5104715;28;20038;-70
2021/08/13 01:18:32;;;;;;;22.83;15.30;;;;;;;16.76;58.53;99132.88;5105266;28;20034;-69
2021/08/13 01:21:29;;;;;;;22.02;15.25;;;;;;;16.67;59.03;99133.66;5104221;28;20035;-69
2021/08/13 01:24:02;;;;;;;24.08;16.35;;;;;;;16.56;59.26;99140.63;5104717;28;20031;-69
2021/08/13 01:26:32;;;;;;;23.85;16.73;;;;;;;16.43;59.19;99134.06;5104893;28;20028;-69
2021/08/13 01:29:29;;;;;;;19.83;15.77;;;;;;;16.41;59.58;99138.28;5105449;28;20024;-70
2021/08/13 01:32:12;;;;;;;22.25;16.40;;;;;;;16.40;59.77;99139.44;5102806;28;20027;-69
2021/08/13 01:34:45;;;;;;;23.30;16.98;;;;;;;16.35;59.95;99134.84;5105248;28;20046;-69
2021/08/13 01:37:18;;;;;;;24.80;16.17;;;;;;;16.37;60.18;99138.94;5103388;28;20024;-69
2021/08/13 01:39:45;;;;;;;22.60;15.98;;;;;;;16.44;60.04;99140.44;5103897;28;20051;-69
2021/08/13 01:42:11;;;;;;;24.40;16.20;;;;;;;16.48;60.30;99145.00;5101079;28;20693;-69
2021/08/13 01:44:38;;;;;;;22.75;16.40;;;;;;;16.51;60.21;99140.75;5105151;28;20189;-69
2021/08/13 01:47:04;;;;;;;22.13;16.25;;;;;;;16.53;60.38;99141.25;5105020;28;20566;-69
2021/08/13 01:49:32;;;;;;;23.38;16.65;;;;;;;16.51;60.14;99136.06;5104899;28;20027;-69
2021/08/13 01:52:00;;;;;;;22.05;15.90;;;;;;;16.50;60.30;99128.09;5083341;28;20020;-69
2021/08/13 01:54:26;;;;;;;23.85;16.33;;;;;;;16.49;60.06;99127.25;5104326;28;20228;-69
2021/08/13 01:56:53;;;;;;;22.17;16.27;;;;;;;16.52;60.50;99134.09;5104192;28;20208;-69
2021/08/13 01:59:19;;;;;;;23.25;16.15;;;;;;;16.48;60.15;99135.88;5103973;28;20100;-69
2021/08/13 02:01:46;;;;;;;23.52;15.90;;;;;;;16.48;60.23;99131.16;5102366;28;20547;-70
2021/08/13 02:04:17;;;;;;;21.55;15.90;;;;;;;16.47;60.18;99131.50;5104443;28;20020;-69
2021/08/13 02:06:43;;;;;;;24.13;16.05;;;;;;;16.44;59.95;99130.16;5103954;28;20031;-69
2021/08/13 02:09:10;;;;;;;27.42;16.02;;;;;;;16.32;59.97;99127.16;5104431;28;20069;-69
2021/08/13 02:11:36;;;;;;;20.75;15.07;;;;;;;16.24;60.36;99122.44;5102747;28;20233;-69
2021/08/13 02:14:02;;;;;;;21.50;15.75;;;;;;;16.16;60.45;99119.28;5104146;28;20024;-69
2021/08/13 02:16:30;;;;;;;22.10;16.35;;;;;;;16.14;60.55;99115.19;5104191;28;20035;-69
2021/08/13 02:19:22;;;;;;;20.58;16.13;;;;;;;16.17;60.56;99118.16;5103278;28;20866;-69
2021/08/13 02:21:50;;;;;;;21.70;16.05;;;;;;;16.09;61.05;99113.38;5101498;28;20391;-69
2021/08/13 02:24:17;;;;;;;21.23;15.25;;;;;;;15.99;61.27;99128.31;5103331;28;20073;-69
2021/08/13 02:26:44;;;;;;;24.33;15.98;;;;;;;15.87;61.20;99128.06;5085259;28;20072;-69
2021/08/13 02:29:10;;;;;;;24.05;16.67;;;;;;;15.82;61.34;99111.56;5085759;28;20026;-69
2021/08/13 02:31:35;;;;;;;21.30;15.30;;;;;;;15.81;61.86;99119.06;5102338;28;20023;-69
2021/08/13 02:34:01;;;;;;;23.17;16.38;;;;;;;15.73;61.81;99115.06;5103017;28;20020;-69
2021/08/13 02:36:53;;;;;;;22.48;16.38;;;;;;;15.72;62.20;99116.19;5084674;28;20046;-69
2021/08/13 02:39:26;;;;;;;22.88;16.67;;;;;;;15.71;62.27;99111.00;5103750;28;20027;-69
2021/08/13 02:41:56;;;;;;;23.25;16.48;;;;;;;15.69;62.16;99105.78;5101344;28;20024;-69
2021/08/13 02:44:21;;;;;;;;;;;;;;;15.69;62.64;99110.50;5102817;28;20123;-69
2021/08/13 02:46:57;;;;;;;24.40;16.80;;;;;;;15.65;62.76;99112.25;5103326;28;19952;-70
2021/08/13 02:49:27;;;;;;;24.27;17.50;;;;;;;15.62;62.96;99113.72;5103597;28;20615;-69
2021/08/13 02:52:04;;;;;;;26.10;17.92;;;;;;;15.61;63.19;99118.41;5102119;28;20042;-70
2021/08/13 02:54:31;;;;;;;24.05;17.83;;;;;;;15.65;62.82;99109.50;5102502;28;20023;-69
2021/08/13 02:56:56;;;;;;;27.88;17.45;;;;;;;15.66;62.74;99117.50;5102909;28;20499;-69
2021/08/13 02:59:26;;;;;;;27.23;18.05;;;;;;;15.71;63.18;99114.56;5084636;28;20054;-70
2021/08/13 03:01:52;;;;;;;;;;;;;;;15.77;62.81;99118.03;5101453;28;20027;-70
2021/08/13 03:04:20;;;;;;;23.38;17.98;;;;;;;15.76;62.90;99119.97;5101835;28;19915;-70
2021/08/13 03:06:47;;;;;;;27.58;17.73;;;;;;;15.83;63.20;99118.72;5102496;28;20483;-69
2021/08/13 03:09:14;;;;;;;22.60;17.02;;;;;;;15.88;62.82;99126.94;5103761;28;20468;-69
2021/08/13 03:11:42;;;;;;;27.48;18.42;;;;;;;15.92;62.80;99125.97;5102596;28;20748;-69
2021/08/13 03:14:09;;;;;;;23.73;17.70;;;;;;;15.95;63.11;99123.72;5102259;28;20016;-70
2021/08/13 03:16:35;;;;;;;24.90;16.92;;;;;;;15.97;62.53;99124.22;5103023;28;20043;-69
2021/08/13 03:19:01;;;;;;;24.70;17.10;;;;;;;15.92;62.12;99114.91;5103501;28;20038;-70
2021/08/13 03:21:28;;;;;;;23.40;16.90;;;;;;;15.84;62.50;99115.66;5101889;28;20023;-70
2021/08/13 03:23:55;;;;;;;24.10;16.52;;;;;;;15.76;62.48;99097.84;5102072;28;20086;-69
2021/08/13 03:26:21;;;;;;;25.33;17.80;;;;;;;15.72;63.08;99098.81;5102706;28;20019;-69
2021/08/13 03:28:47;;;;;;;22.60;16.30;;;;;;;15.69;63.15;99096.66;5102534;28;20022;-69
2021/08/13 03:31:36;;;;;;;25.67;17.73;;;;;;;15.70;62.88;99088.03;5102021;28;20019;-69
2021/08/13 03:34:03;;;;;;;24.77;16.20;;;;;;;15.73;63.04;99092.94;5083696;28;20593;-69
2021/08/13 03:36:29;;;;;;;21.65;16.67;;;;;;;15.75;63.32;99095.41;5102990;28;20027;-70
2021/08/13 03:38:54;;;;;;;24.52;16.60;;;;;;;15.74;63.46;99097.34;5083507;28;20039;-69
2021/08/13 03:41:20;;;;;;;24.10;16.42;;;;;;;15.80;63.32;99097.22;5101320;28;20069;-69
2021/08/13 03:43:46;;;;;;;24.02;16.75;;;;;;;15.87;63.63;99101.22;5102101;27;20027;-69
2021/08/13 03:46:11;;;;;;;26.35;16.80;;;;;;;15.94;63.23;99098.00;5100187;28;20012;-69
2021/08/13 03:48:37;;;;;;;21.75;16.02;;;;;;;15.97;63.07;99089.06;5103231;28;20035;-69
2021/08/13 03:51:04;;;;;;;22.08;16.33;;;;;;;16.00;63.38;99088.44;5102521;28;20023;-70
2021/08/13 03:53:30;;;;;;;22.70;15.82;;;;;;;15.94;63.09;99095.25;5065686;28;20027;-71
2021/08/13 03:55:55;;;;;;;26.77;15.88;;;;;;;15.81;64.06;99091.41;5101683;28;20047;-70
2021/08/13 03:58:20;;;;;;;24.20;15.30;;;;;;;15.69;63.62;99091.16;5102562;28;20065;-70
2021/08/13 04:00:46;;;;;;;22.45;15.65;;;;;;;15.52;64.10;99103.69;5102400;28;20095;-69
2021/08/13 04:03:12;;;;;;;22.20;15.95;;;;;;;15.44;64.43;99101.72;5100884;28;20460;-69
2021/08/13 04:05:38;;;;;;;22.42;15.27;;;;;;;15.44;64.70;99102.50;5102245;28;20098;-69
2021/08/13 04:08:04;;;;;;;19.85;15.07;;;;;;;15.44;64.77;99098.94;5102616;28;20622;-69
2021/08/13 04:10:29;;;;;;;22.92;15.40;;;;;;;15.44;65.00;99104.47;5103219;28;20034;-70
2021/08/13 04:12:55;;;;;;;20.75;15.35;;;;;;;15.44;64.97;99102.50;5102532;28;20032;-69
2021/08/13 04:15:21;;;;;;;22.42;15.23;;;;;;;15.38;65.11;99098.22;5102563;28;20030;-69
2021/08/13 04:17:47;;;;;;;21.75;15.15;;;;;;;15.43;65.27;99089.00;5105490;28;20126;-69
2021/08/13 04:20:13;;;;;;;20.45;14.70;;;;;;;15.45;66.27;99098.63;5105495;28;20429;-69
2021/08/13 04:22:39;;;;;;;20.80;15.73;;;;;;;15.41;66.07;99097.59;5106782;28;20023;-69
2021/08/13 04:25:04;;;;;;;21.00;15.05;;;;;;;15.39;65.84;99097.09;5107501;28;20035;-69
2021/08/13 04:27:30;;;;;;;21.00;15.07;;;;;;;15.39;66.25;99088.81;5106808;28;20503;-69
2021/08/13 04:29:55;;;;;;;28.35;15.32;;;;;;;15.40;66.53;99098.72;5088150;28;20104;-69
2021/08/13 04:32:21;;;;;;;18.10;14.25;;;;;;;15.36;66.30;99097.72;5106590;28;20032;-70
2021/08/13 04:34:46;;;;;;;21.77;15.23;;;;;;;15.33;66.77;99096.41;5108015;28;20498;-70
2021/08/13 04:37:11;;;;;;;19.70;14.50;;;;;;;15.35;67.28;99098.03;5108143;28;20490;-70
2021/08/13 04:39:37;;;;;;;18.27;13.95;;;;;;;15.36;68.01;99106.00;5108516;28;20058;-70
2021/08/13 04:42:03;;;;;;;23.58;15.32;;;;;;;15.38;67.51;99112.03;5107377;28;20027;-70
2021/08/13 04:44:28;;;;;;;22.77;15.30;;;;;;;15.42;67.56;99110.28;5107964;28;20051;-70
2021/08/13 04:46:54;;;;;;;22.23;15.07;;;;;;;15.46;67.89;99111.31;5107835;28;20032;-70
2021/08/13 04:49:19;;;;;;;18.45;13.15;;;;;;;15.53;68.08;99116.38;5108022;28;20493;-70
2021/08/13 04:51:44;;;;;;;19.92;14.43;;;;;;;15.55;68.23;99116.91;5106911;28;20073;-70
2021/08/13 04:54:11;;;;;;;20.70;15.88;;;;;;;15.61;68.78;99112.06;5108199;28;20032;-70
2021/08/13 04:56:37;;;;;;;21.02;15.13;;;;;;;15.65;68.41;99113.09;5107899;28;20716;-70
2021/08/13 04:59:02;;;;;;;19.60;14.05;;;;;;;15.70;68.12;99114.91;5107740;28;20035;-71
2021/08/13 05:01:27;;;;;;;21.05;15.52;;;;;;;15.71;68.79;99113.78;5106222;28;20491;-70
2021/08/13 05:03:53;;;;;;;19.42;14.90;;;;;;;15.71;68.77;99113.78;5089143;28;20035;-70
2021/08/13 05:06:18;;;;;;;22.92;15.27;;;;;;;15.75;68.61;99123.88;5107513;28;20532;-70
2021/08/13 05:08:44;;;;;;;19.52;14.05;;;;;;;15.80;68.28;99116.59;5107808;28;20031;-70
2021/08/13 05:11:09;;;;;;;18.08;14.43;;;;;;;15.79;68.95;99115.78;5107020;28;20031;-70
2021/08/13 05:13:35;;;;;;;18.92;13.90;;;;;;;15.84;68.59;99120.34;5088496;28;20035;-70
2021/08/13 05:16:00;;;;;;;18.08;14.27;;;;;;;15.92;68.74;99123.19;5107628;28;20126;-70
2021/08/13 05:18:26;;;;;;;22.65;15.40;;;;;;;16.02;68.46;99124.91;5107233;28;20051;-70
2021/08/13 05:20:51;;;;;;;19.65;14.82;;;;;;;16.18;68.89;99128.09;5088190;28;20100;-70
2021/08/13 05:23:17;;;;;;;19.02;13.80;;;;;;;16.20;68.95;99134.13;5106708;28;20051;-70
2021/08/13 05:25:42;;;;;;;19.63;14.48;;;;;;;16.19;68.39;99128.88;5107588;28;20093;-70
2021/08/13 05:28:07;;;;;;;16.85;13.15;;;;;;;16.27;68.09;99130.91;5106498;28;20441;-69
2021/08/13 05:30:33;;;;;;;21.27;13.10;;;;;;;16.35;68.30;99135.66;5107571;28;20037;-70
2021/08/13 05:32:58;;;;;;;20.25;14.50;;;;;;;16.46;67.88;99140.94;5106230;28;20033;-70
2021/08/13 05:35:24;;;;;;;19.60;14.23;;;;;;;16.49;68.27;99132.00;5107014;28;20201;-70
2021/08/13 05:37:49;;;;;;;16.27;13.35;;;;;;;16.50;67.92;99139.97;5088042;28;20111;-70
2021/08/13 05:40:15;;;;;;;18.63;14.45;;;;;;;16.58;67.90;99146.66;5106633;28;20031;-70
2021/08/13 05:42:40;;;;;;;17.33;12.68;;;;;;;16.69;67.55;99143.63;5106302;28;20038;-70
2021/08/13 05:45:06;;;;;;;16.20;13.27;;;;;;;16.72;67.09;99140.19;5107358;28;20505;-70
2021/08/13 05:47:33;;;;;;;15.73;13.15;;;;;;;16.77;67.91;99135.31;5106825;28;20034;-70
2021/08/13 05:49:59;;;;;;;18.50;12.93;;;;;;;16.86;67.71;99146.44;5106492;28;20360;-71
2021/08/13 05:52:25;;;;;;;18.40;13.30;;;;;;;16.95;67.50;99140.94;5105576;28;20039;-70
2021/08/13 05:54:50;;;;;;;16.15;11.20;;;;;;;17.03;67.70;99142.94;5106740;28;20464;-70
2021/08/13 05:57:15;;;;;;;16.77;12.30;;;;;;;17.05;68.11;99131.50;5086481;28;20484;-70
2021/08/13 05:59:41;;;;;;;16.67;12.70;;;;;;;17.10;67.70;99132.19;5086324;28;20024;-69
2021/08/13 06:02:06;;;;;;;15.73;12.55;;;;;;;17.19;67.86;99140.53;5084977;28;20032;-71
2021/08/13 06:04:32;;;;;;;15.20;11.98;;;;;;;17.32;67.33;99133.19;5085685;28;20057;-71
2021/08/13 06:06:57;;;;;;;17.20;11.82;;;;;;;17.43;67.46;99136.44;5086087;28;20238;-70
2021/08/13 06:09:22;;;;;;;17.25;11.95;;;;;;;17.53;67.97;99136.13;5085763;28;20403;-70
2021/08/13 06:11:48;;;;;;;15.80;11.23;;;;;;;17.59;67.57;99136.78;5083877;28;20021;-72
2021/08/13 06:14:13;;;;;;;15.35;11.75;;;;;;;17.68;67.17;99136.78;5078266;28;20480;-72
2021/08/13 06:16:39;;;;;;;16.80;11.70;;;;;;;17.77;66.74;99134.00;5090318;28;20047;-71
2021/08/13 06:19:04;;;;;;;14.80;11.27;;;;;;;17.89;66.38;99133.31;5091632;28;20073;-71
2021/08/13 06:21:30;;;;;;;16.92;11.60;;;;;;;17.99;66.63;99133.81;5089474;28;20038;-71
2021/08/13 06:23:56;;;;;;;14.40;10.45;;;;;;;18.13;66.27;99135.59;5089999;28;20028;-71
2021/08/13 06:26:21;;;;;;;13.85;11.02;;;;;;;18.23;66.45;99129.69;5091037;28;20020;-71
2021/08/13 06:28:47;;;;;;;12.80;9.75;;;;;;;18.33;66.00;99128.53;5092292;28;20016;-72
2021/08/13 06:31:12;;;;;;;16.25;10.88;;;;;;;18.37;65.80;99132.25;5091336;28;20024;-70
2021/08/13 06:33:38;;;;;;;16.60;10.93;;;;;;;18.51;65.82;99140.38;5091507;28;20111;-69
2021/08/13 06:36:03;;;;;;;13.88;10.15;;;;;;;18.63;65.63;99133.31;5091373;28;20103;-71
2021/08/13 06:38:29;;;;;;;16.05;10.60;;;;;;;18.71;65.56;99138.03;5091161;28;20020;-70
2021/08/13 06:40:54;;;;;;;13.00;10.15;;;;;;;18.85;65.20;99138.59;5090298;28;20120;-70
2021/08/13 06:43:20;;;;;;;15.43;9.10;;;;;;;18.96;64.75;99136.25;5089543;28;20487;-69
2021/08/13 06:45:45;;;;;;;10.80;8.55;;;;;;;19.08;64.65;99137.50;5091100;28;20022;-70
2021/08/13 06:48:11;;;;;;;11.90;8.50;;;;;;;19.13;64.34;99137.31;5090116;28;20028;-69
2021/08/13 06:50:37;;;;;;;15.50;8.73;;;;;;;19.15;63.89;99135.00;5088664;28;20695;-69
2021/08/13 06:53:02;;;;;;;11.80;9.13;;;;;;;19.15;63.83;99138.63;5090864;28;20032;-71
2021/08/13 06:55:28;;;;;;;10.55;8.32;;;;;;;19.23;63.80;99141.66;5090978;28;20415;-70
2021/08/13 06:57:53;;;;;;;12.68;8.90;;;;;;;19.32;63.67;99137.69;5089797;28;20020;-71
2021/08/13 07:00:19;;;;;;;11.80;8.82;;;;;;;19.42;63.69;99143.97;5090560;28;20024;-70
2021/08/13 07:02:47;;;;;;;13.43;8.90;;;;;;;19.50;63.53;99154.22;5089695;28;20020;-71
2021/08/13 07:05:14;;;;;;;13.88;10.32;;;;;;;19.59;63.35;99149.41;5089003;28;20077;-71
2021/08/13 07:07:40;;;;;;;11.50;9.15;;;;;;;19.73;63.37;99148.31;5089590;28;20032;-70
2021/08/13 07:10:08;;;;;;;12.25;8.45;;;;;;;19.82;63.42;99140.69;5091079;28;20024;-71
2021/08/13 07:12:34;;;;;;;12.07;8.43;;;;;;;19.95;63.45;99146.34;5090090;28;20039;-71
2021/08/13 07:15:00;;;;;;;13.88;9.02;;;;;;;20.08;63.31;99136.88;5090715;28;20046;-68
2021/08/13 07:17:25;;;;;;;10.80;8.32;;;;;;;20.18;62.83;99133.63;5091192;28;20594;-68
2021/08/13 07:19:51;;;;;;;13.70;8.88;;;;;;;20.28;62.89;99140.75;5090290;28;20084;-68
2021/08/13 07:22:16;;;;;;;11.90;7.97;;;;;;;20.37;62.63;99135.91;5089875;28;20477;-68
2021/08/13 07:24:41;;;;;;;11.52;7.72;;;;;;;20.43;62.31;99141.22;5090575;28;20124;-69
2021/08/13 07:27:07;;;;;;;10.55;7.13;;;;;;;20.47;62.15;99140.22;5091067;28;20535;-70
2021/08/13 07:29:32;;;;;;;11.05;8.35;;;;;;;20.53;62.39;99130.47;5091146;28;20028;-71
2021/08/13 07:31:58;;;;;;;12.93;7.85;;;;;;;20.64;62.32;99135.56;5089689;28;20031;-69
2021/08/13 07:34:23;;;;;;;11.95;8.07;;;;;;;20.75;61.99;99135.94;5090325;28;20058;-71
2021/08/13 07:36:49;;;;;;;13.40;8.45;;;;;;;20.86;61.80;99131.53;5088814;28;20468;-70
2021/08/13 07:39:14;;;;;;;10.85;8.63;;;;;;;20.98;61.75;99139.09;5089992;28;20044;-68
2021/08/13 07:41:40;;;;;;;9.88;6.80;;;;;;;21.08;61.61;99133.03;5088281;28;20031;-69
2021/08/13 07:44:05;;;;;;;10.18;7.65;;;;;;;21.17;61.46;99132.09;5090667;28;20051;-69
2021/08/13 07:46:31;;;;;;;13.07;7.50;;;;;;;21.21;61.11;99133.03;5088382;28;20028;-69
2021/08/13 07:48:56;;;;;;;11.40;7.25;;;;;;;21.27;60.54;99138.00;5087990;28;20372;-70
2021/08/13 07:51:22;;;;;;;9.38;7.28;;;;;;;21.36;60.65;99142.63;5074477;28;20043;-70
2021/08/13 07:53:47;;;;;;;9.95;7.45;;;;;;;21.47;60.25;99142.94;5085733;28;20033;-70
2021/08/13 07:56:12;;;;;;;10.77;7.50;;;;;;;21.57;60.30;99142.47;5096791;28;20052;-71
2021/08/13 07:58:38;;;;;;;7.82;6.53;;;;;;;21.62;59.46;99144.22;5107426;28;20508;-70
2021/08/13 08:01:03;;;;;;;9.55;6.95;;;;;;;21.69;59.65;99144.41;5089267;28;20457;-73
2021/08/13 08:03:29;;;;;;;11.35;6.90;;;;;;;21.82;59.53;99145.19;5104430;28;20457;-70
2021/08/13 08:05:54;;;;;;;9.75;6.47;;;;;;;21.90;59.04;99144.22;5106364;28;20024;-70
2021/08/13 08:08:20;;;;;;;7.95;6.35;;;;;;;22.03;58.96;99135.78;5107674;28;20069;-70
2021/08/13 08:10:48;;;;;;;7.30;5.97;;;;;;;22.12;58.59;99136.44;5108726;28;20019;-70
2021/08/13 08:13:15;;;;;;;8.93;6.32;;;;;;;22.19;58.35;99147.00;5106994;28;20027;-70
2021/08/13 08:15:42;;;;;;;9.77;6.80;;;;;;;22.24;57.99;99141.94;5107515;28;20073;-71
2021/08/13 08:18:07;;;;;;;8.20;6.28;;;;;;;22.35;57.99;99144.22;5089998;28;20388;-70
2021/08/13 08:20:33;;;;;;;8.30;5.78;;;;;;;22.44;57.17;99144.91;5088586;28;20081;-68
2021/08/13 08:22:58;;;;;;;10.07;5.88;;;;;;;22.50;57.03;99149.06;5107757;28;20084;-69
2021/08/13 08:25:24;;;;;;;6.90;5.80;;;;;;;22.57;56.70;99154.81;5106400;28;20085;-68
2021/08/13 08:27:49;;;;;;;9.02;5.57;;;;;;;22.62;56.34;99150.94;5075166;28;20065;-70
2021/08/13 08:30:16;;;;;;;6.82;5.70;;;;;;;22.62;55.90;99144.56;5106211;28;20020;-69
2021/08/13 08:32:41;;;;;;;7.53;5.15;;;;;;;22.69;55.80;99151.13;5105388;28;20036;-68
2021/08/13 08:35:07;;;;;;;7.88;6.13;;;;;;;22.80;55.94;99153.38;5107094;28;20023;-67
2021/08/13 08:37:32;;;;;;;7.55;5.07;;;;;;;22.88;55.53;99147.59;5108455;28;20022;-68
2021/08/13 08:39:58;;;;;;;7.65;5.78;;;;;;;22.98;55.70;99148.22;5087766;28;20111;-69
2021/08/13 08:42:23;;;;;;;9.05;5.35;;;;;;;23.05;55.63;99153.97;5106615;28;20111;-70
2021/08/13 08:44:49;;;;;;;8.15;5.68;;;;;;;23.18;55.72;99152.69;5107168;28;20102;-69
2021/08/13 08:47:20;;;;;;;9.23;5.78;;;;;;;23.31;55.82;99158.19;5106723;28;20012;-69
2021/08/13 08:49:49;;;;;;;7.15;5.25;;;;;;;23.44;55.19;99158.88;5109119;28;20052;-69
2021/08/13 08:52:17;;;;;;;8.50;5.93;;;;;;;23.42;54.68;99158.44;5107156;28;20027;-68
2021/08/13 08:54:43;;;;;;;7.78;5.82;;;;;;;23.42;54.58;99150.84;5106957;28;20027;-69
2021/08/13 08:57:11;;;;;;;7.20;5.35;;;;;;;23.47;54.58;99155.34;5107984;28;20058;-70
2021/08/13 08:59:36;;;;;;;8.98;6.25;;;;;;;23.55;54.46;99156.31;5107920;28;20472;-68
2021/08/13 09:02:02;;;;;;;7.10;5.63;;;;;;;23.60;54.73;99162.44;5106524;28;20027;-69
2021/08/13 09:04:27;;;;;;;7.10;5.80;;;;;;;23.67;53.44;99161.78;5110936;28;20113;-68
2021/08/13 09:06:53;;;;;;;8.35;4.55;;;;;;;23.73;53.61;99159.47;5111290;28;20203;-70
2021/08/13 09:09:20;;;;;;;7.72;4.88;;;;;;;23.79;53.55;99169.22;5110360;28;20579;-69
2021/08/13 09:11:46;;;;;;;6.45;5.13;;;;;;;23.81;53.76;99166.06;5090827;28;20111;-69
2021/08/13 09:14:13;;;;;;;7.05;4.88;;;;;;;23.81;52.98;99166.84;5112475;28;20057;-70
2021/08/13 09:16:43;;;;;;;6.93;4.97;;;;;;;23.87;53.59;99162.59;5111556;28;20554;-68
2021/08/13 09:19:09;;;;;;;8.60;5.47;;;;;;;23.89;53.47;99165.81;5093731;28;20031;-70
2021/08/13 09:21:37;;;;;;;7.88;5.60;;;;;;;23.92;52.63;99167.88;5110666;28;20108;-69
2021/08/13 09:24:11;;;;;;;7.65;5.50;;;;;;;23.95;53.01;99169.13;5112394;28;20034;-69
2021/08/13 09:26:41;;;;;;;7.93;5.50;;;;;;;24.03;53.28;99172.94;5110680;28;20038;-69
2021/08/13 09:29:08;;;;;;;9.10;5.78;;;;;;;24.10;52.75;99163.84;5093141;28;20124;-71
2021/08/13 09:31:35;;;;;;;8.38;5.82;;;;;;;24.19;53.01;99167.25;5111250;27;20019;-70
2021/08/13 09:34:12;;;;;;;8.00;5.25;;;;;;;24.30;52.21;99167.44;5109896;28;20551;-74
2021/08/13 09:36:52;;;;;;;9.93;5.90;;;;;;;24.38;52.40;99164.38;5109681;28;20557;-68
2021/08/13 09:39:51;;;;;;;6.85;5.20;;;;;;;24.49;52.32;99167.38;5107717;28;20063;-69
2021/08/13 09:42:17;;;;;;;6.85;5.47;;;;;;;24.62;51.54;99170.00;5090721;28;20084;-67
2021/08/13 09:44:42;;;;;;;9.15;5.93;;;;;;;24.76;51.93;99170.28;5110520;28;20147;-69
2021/08/13 09:47:10;;;;;;;8.45;5.53;;;;;;;24.88;51.23;99165.63;5109962;28;20040;-68
2021/08/13 09:49:39;;;;;;;11.25;5.68;;;;;;;24.92;50.92;99166.50;5111093;28;20028;-68
2021/08/13 09:52:18;;;;;;;7.50;6.32;;;;;;;24.92;50.30;99161.72;5108675;28;20502;-68
2021/08/13 09:54:46;;;;;;;7.07;5.60;;;;;;;24.96;50.39;99161.75;5111559;27;20076;-67
2021/08/13 09:57:14;;;;;;;8.60;5.72;;;;;;;24.99;50.32;99157.41;5108240;27;20036;-68
2021/08/13 09:59:58;;;;;;;6.50;5.05;;;;;;;25.08;50.76;99149.50;5107238;27;20070;-71
2021/08/13 10:02:23;;;;;;;8.73;5.80;;;;;;;25.12;50.09;99150.38;5108473;28;20027;-70
2021/08/13 10:04:49;;;;;;;8.70;6.18;;;;;;;25.20;50.74;99154.13;5107556;27;20026;-70
2021/08/13 10:07:20;;;;;;;8.70;6.07;;;;;;;25.30;50.85;99159.06;5107283;28;20509;-68
2021/08/13 10:09:47;;;;;;;7.75;5.90;;;;;;;25.43;50.50;99148.44;5106122;28;20036;-69
2021/08/13 10:12:12;;;;;;;8.52;6.40;;;;;;;25.51;50.54;99150.16;5105415;28;20064;-68
2021/08/13 10:14:40;;;;;;;7.78;5.75;;;;;;;25.51;48.60;99138.13;5109250;27;20060;-69
2021/08/13 10:17:13;;;;;;;9.10;6.28;;;;;;;25.52;49.29;99146.16;5109885;28;20046;-69
2021/08/13 10:19:41;;;;;;;7.50;5.93;;;;;;;25.58;49.75;99140.22;5093447;28;20023;-70
2021/08/13 10:22:07;;;;;;;8.32;5.20;;;;;;;25.63;48.78;99143.50;5108807;28;20076;-69
2021/08/13 10:24:35;;;;;;;10.38;5.75;;;;;;;25.60;48.74;99130.22;5108762;28;20027;-71
2021/08/13 10:27:01;;;;;;;10.38;6.03;;;;;;;25.68;49.21;99136.75;5104707;28;20035;-70
2021/08/13 10:29:28;;;;;;;9.07;6.60;;;;;;;25.79;49.33;99131.25;5091352;27;20036;-69
2021/08/13 10:31:56;;;;;;;9.15;5.88;;;;;;;25.81;48.52;99135.31;5083291;27;20663;-69
2021/08/13 10:34:22;;;;;;;7.75;5.57;;;;;;;25.83;48.47;99134.91;5075164;28;20134;-68
2021/08/13 10:36:49;;;;;;;9.65;5.47;;;;;;;25.91;48.88;99135.78;5098665;28;20480;-68
2021/08/13 10:39:20;;;;;;;9.13;6.10;;;;;;;26.03;49.27;99129.13;5102078;28;20043;-68
2021/08/13 10:41:59;;;;;;;9.73;5.93;;;;;;;26.13;49.06;99131.25;5076195;28;20933;-72
2021/08/13 10:44:31;;;;;;;7.80;5.30;;;;;;;26.20;48.43;99130.53;5097394;27;20023;-69
2021/08/13 10:46:59;;;;;;;8.02;4.88;;;;;;;26.25;48.09;99133.00;5094065;28;20046;-69
2021/08/13 10:49:26;;;;;;;8.90;4.80;;;;;;;26.27;48.19;99133.41;5095487;28;20468;-68
2021/08/13 10:52:03;;;;;;;7.07;5.55;;;;;;;26.35;48.20;99135.09;5094111;28;20115;-69
2021/08/13 10:54:40;;;;;;;12.07;5.53;;;;;;;26.32;46.78;99141.47;5094315;27;20056;-68
2021/08/13 10:57:07;;;;;;;8.63;4.85;;;;;;;26.33;46.79;99134.66;5094737;28;20047;-69
2021/08/13 10:59:39;;;;;;;8.80;5.20;;;;;;;26.34;46.91;99129.84;5093976;27;20042;-69
2021/08/13 11:02:12;;;;;;;9.85;5.57;;;;;;;26.41;47.48;99127.91;5092764;28;20032;-68
2021/08/13 11:04:42;;;;;;;7.70;3.83;;;;;;;26.48;45.10;99129.19;5095969;28;20027;-67
2021/08/13 11:07:09;;;;;;;7.88;4.72;;;;;;;26.44;45.70;99115.91;5096175;28;20063;-70
2021/08/13 11:09:37;;;;;;;6.53;4.32;;;;;;;26.52;46.50;99127.22;5095240;28;20043;-69
2021/08/13 11:12:14;;;;;;;7.22;4.35;;;;;;;26.57;44.94;99121.22;5092891;28;20062;-69
2021/08/13 11:14:47;;;;;;;4.22;3.78;;;;;;;26.57;45.54;99118.41;5070991;28;20044;-70
2021/08/13 11:17:31;;;;;;;6.18;4.22;;;;;;;26.63;45.59;99107.59;5094600;28;20038;-68
2021/08/13 11:19:59;;;;;;;5.63;4.50;;;;;;;26.68;45.00;99110.88;5094088;28;20027;-68
2021/08/13 11:22:34;;;;;;;8.77;4.25;;;;;;;26.72;44.68;99108.09;5092417;28;20093;-70
2021/08/13 11:25:00;;;;;;;8.70;4.47;;;;;;;26.73;44.07;99104.06;5093907;28;20150;-69